Time;durP1;ratioP1;P1;durP2;ratioP2;P2;SDS_P1;SDS_P2;PMS_P1;PMS_P2;Temp;Humidity;BMP_temperature;BMP_pressure;BME280_temperature;BME280_humidity;BME280_pressure;Samples;Min_cycle;Max_cycle;Signal;HPM_P1;HPM_P2
2021/08/05 00:00:14;;;;;;;4.07;3.60;;;;;;;18.81;57.86;100778.19;686854;28;18348;-63
2021/08/05 00:00:36;;;;;;;3.87;3.57;;;;;;;18.81;58.10;100778.19;685131;28;70387;-63
2021/08/05 00:00:58;;;;;;;3.95;3.60;;;;;;;18.82;58.19;100776.28;687169;28;1788;-62
2021/08/05 00:01:19;;;;;;;4.03;3.63;;;;;;;18.80;58.04;100779.25;686701;28;12361;-62
2021/08/05 00:01:40;;;;;;;3.85;3.60;;;;;;;18.82;58.36;100781.75;686649;28;22410;-63
2021/08/05 00:02:01;;;;;;;4.20;3.80;;;;;;;18.80;58.32;100775.69;687051;28;23565;-62
2021/08/05 00:02:23;;;;;;;4.63;3.97;;;;;;;18.81;58.28;100778.19;686546;28;24366;-63
2021/08/05 00:02:44;;;;;;;3.83;3.40;;;;;;;18.81;58.12;100775.44;685787;28;44385;-63
2021/08/05 00:03:05;;;;;;;4.55;3.78;;;;;;;18.82;58.25;100774.38;686846;28;22398;-63
2021/08/05 00:03:26;;;;;;;4.18;3.72;;;;;;;18.81;58.12;100775.44;686975;28;23474;-63
2021/08/05 00:03:47;;;;;;;3.80;3.55;;;;;;;18.82;58.23;100776.28;687076;28;23743;-62
2021/08/05 00:04:10;;;;;;;4.10;3.70;;;;;;;18.83;58.01;100772.50;686794;28;23452;-63
2021/08/05 00:04:32;;;;;;;4.03;3.60;;;;;;;18.83;58.13;100775.22;685303;28;70730;-63
2021/08/05 00:04:53;;;;;;;4.22;3.83;;;;;;;18.83;58.21;100770.56;685654;28;47044;-62
2021/08/05 00:05:14;;;;;;;4.20;3.90;;;;;;;18.84;58.20;100777.75;686513;28;20878;-62
2021/08/05 00:05:35;;;;;;;4.18;3.80;;;;;;;18.83;58.14;100773.31;687067;28;22401;-63
2021/08/05 00:05:57;;;;;;;3.70;3.40;;;;;;;18.82;58.05;100776.28;686732;28;21524;-62
2021/08/05 00:06:19;;;;;;;3.70;3.50;;;;;;;18.81;58.25;100775.44;687617;28;1477;-62
2021/08/05 00:06:40;;;;;;;3.80;3.50;;;;;;;18.80;58.29;100773.78;686916;28;23503;-62
2021/08/05 00:07:01;;;;;;;4.00;3.70;;;;;;;18.79;58.32;100772.09;687007;28;20870;-63
2021/08/05 00:07:23;;;;;;;3.78;3.45;;;;;;;18.79;58.10;100776.75;686995;28;20213;-62
2021/08/05 00:07:44;;;;;;;3.80;3.50;;;;;;;18.77;58.27;100768.75;686104;28;46444;-62
2021/08/05 00:08:05;;;;;;;3.70;3.40;;;;;;;18.77;58.38;100774.25;687383;28;5788;-62
2021/08/05 00:08:26;;;;;;;3.50;3.30;;;;;;;18.77;58.30;100770.66;686258;28;46215;-63
2021/08/05 00:08:48;;;;;;;3.80;3.40;;;;;;;18.75;58.22;100773.63;686954;28;20801;-62
2021/08/05 00:09:10;;;;;;;3.88;3.60;;;;;;;18.73;58.29;100771.13;686241;28;34567;-63
2021/08/05 00:09:31;;;;;;;3.95;3.65;;;;;;;18.72;58.49;100774.94;687327;28;1355;-63
2021/08/05 00:09:52;;;;;;;4.35;3.42;;;;;;;18.72;58.22;100768.63;686980;28;1046;-63
2021/08/05 00:10:14;;;;;;;4.53;3.40;;;;;;;18.71;58.07;100767.81;686285;28;22494;-63
2021/08/05 00:10:35;;;;;;;5.47;3.55;;;;;;;18.71;58.22;100766.94;686239;28;32722;-63
2021/08/05 00:10:56;;;;;;;4.18;3.35;;;;;;;18.70;58.32;100773.50;686784;28;12155;-63
2021/08/05 00:11:18;;;;;;;3.60;3.30;;;;;;;18.69;58.32;100769.91;686190;28;24313;-62
2021/08/05 00:11:41;;;;;;;4.15;3.55;;;;;;;18.68;58.33;100767.41;687555;28;953;-61
2021/08/05 00:12:02;;;;;;;3.25;2.97;;;;;;;18.68;58.39;100764.66;686158;28;46585;-62
2021/08/05 00:12:24;;;;;;;4.30;3.05;;;;;;;18.68;58.38;100772.88;686965;28;1026;-62
2021/08/05 00:12:45;;;;;;;5.00;3.30;;;;;;;18.67;58.44;100771.22;687430;28;5317;-63
2021/08/05 00:13:07;;;;;;;6.43;3.40;;;;;;;18.67;58.34;100776.69;687120;28;12112;-63
2021/08/05 00:13:28;;;;;;;4.38;3.38;;;;;;;18.67;58.63;100773.97;686187;28;46269;-63
2021/08/05 00:13:49;;;;;;;3.63;3.35;;;;;;;18.66;58.47;100758.59;687748;28;990;-62
2021/08/05 00:14:10;;;;;;;3.38;3.13;;;;;;;18.66;58.50;100773.09;687008;28;18405;-62
2021/08/05 00:14:32;;;;;;;3.92;3.30;;;;;;;18.67;58.54;100768.50;687254;28;14733;-62
2021/08/05 00:14:54;;;;;;;4.13;3.40;;;;;;;18.67;58.45;100768.50;686723;28;38705;-63
2021/08/05 00:15:15;;;;;;;3.47;3.15;;;;;;;18.67;58.48;100766.59;684482;28;22525;-62
2021/08/05 00:15:36;;;;;;;3.38;3.17;;;;;;;18.66;58.50;100764.06;684842;28;22470;-63
2021/08/05 00:15:57;;;;;;;3.45;3.25;;;;;;;18.65;58.40;100766.00;683962;28;46406;-63
2021/08/05 00:16:19;;;;;;;5.60;3.70;;;;;;;18.66;58.45;100764.91;684914;28;20300;-63
2021/08/05 00:16:40;;;;;;;3.83;3.42;;;;;;;18.66;58.37;100764.06;683981;28;47335;-63
2021/08/05 00:17:01;;;;;;;3.83;3.30;;;;;;;18.67;58.37;100765.75;684767;28;24023;-62
2021/08/05 00:17:23;;;;;;;3.60;3.25;;;;;;;18.65;58.38;100765.13;685269;28;836;-63
2021/08/05 00:17:47;;;;;;;3.85;3.10;;;;;;;18.64;58.25;100767.03;684097;28;37880;-63
2021/08/05 00:18:09;;;;;;;4.80;3.25;;;;;;;18.64;58.34;100761.56;684865;28;13972;-62
2021/08/05 00:18:30;;;;;;;3.20;3.00;;;;;;;18.65;58.34;100762.41;683849;28;46300;-63
2021/08/05 00:18:51;;;;;;;3.40;3.10;;;;;;;18.64;58.30;100768.94;684115;28;45911;-62
2021/08/05 00:19:14;;;;;;;3.20;3.00;;;;;;;18.64;58.41;100769.78;685205;28;2075;-63
2021/08/05 00:19:35;;;;;;;3.30;3.10;;;;;;;18.64;58.41;100771.69;682933;28;70371;-62
2021/08/05 00:19:57;;;;;;;3.60;3.30;;;;;;;18.64;58.41;100771.69;684632;28;22254;-63
2021/08/05 00:20:19;;;;;;;4.07;3.13;;;;;;;18.64;58.40;100763.47;684011;28;46705;-62
2021/08/05 00:20:40;;;;;;;3.28;3.00;;;;;;;18.64;58.40;100766.22;684923;28;23463;-63
2021/08/05 00:21:11;;;;;;;3.58;3.28;;;;;;;18.61;58.48;100777.63;681288;28;98586;-63
2021/08/05 00:21:33;;;;;;;4.40;3.25;;;;;;;18.61;58.32;100769.41;685280;28;1001;-63
2021/08/05 00:21:55;;;;;;;5.90;3.40;;;;;;;18.60;58.37;100770.47;684504;28;17075;-62
2021/08/05 00:22:16;;;;;;;3.40;3.20;;;;;;;18.55;58.53;100763.78;684155;28;41666;-62
2021/08/05 00:22:37;;;;;;;3.22;2.95;;;;;;;18.58;58.53;100773.44;684541;28;22477;-62
2021/08/05 00:22:58;;;;;;;3.20;3.00;;;;;;;18.57;58.40;100769.00;684944;28;17395;-62
2021/08/05 00:23:20;;;;;;;3.40;3.10;;;;;;;18.57;58.39;100773.66;685071;28;1333;-62
2021/08/05 00:23:41;;;;;;;3.28;3.08;;;;;;;18.57;58.36;100768.19;683285;28;61971;-62
2021/08/05 00:24:03;;;;;;;3.30;3.10;;;;;;;18.55;58.41;100768.41;684959;28;17938;-62
2021/08/05 00:24:24;;;;;;;3.33;3.03;;;;;;;18.56;58.46;100770.09;684935;28;13813;-62
2021/08/05 00:24:46;;;;;;;3.10;2.90;;;;;;;18.56;58.34;100775.56;684794;28;22196;-62
2021/08/05 00:25:08;;;;;;;3.63;3.33;;;;;;;18.56;58.38;100767.38;683516;28;43855;-62
2021/08/05 00:25:29;;;;;;;3.70;3.40;;;;;;;18.57;58.30;100770.91;683450;28;47370;-63
2021/08/05 00:25:50;;;;;;;3.35;3.10;;;;;;;18.53;58.54;100767.81;684475;28;22535;-63
2021/08/05 00:26:12;;;;;;;3.50;3.20;;;;;;;18.54;58.35;100769.47;685051;28;2136;-63
2021/08/05 00:26:34;;;;;;;3.30;3.10;;;;;;;18.53;58.64;100767.81;683952;28;38901;-62
2021/08/05 00:26:55;;;;;;;3.30;3.10;;;;;;;18.53;58.31;100762.34;682728;28;46446;-63
2021/08/05 00:27:16;;;;;;;3.70;3.40;;;;;;;18.52;58.59;100768.88;683829;28;914;-62
2021/08/05 00:27:37;;;;;;;3.60;3.30;;;;;;;18.50;58.53;100766.38;682934;28;23391;-62
2021/08/05 00:27:58;;;;;;;3.72;3.42;;;;;;;18.52;58.52;100768.88;683623;28;13169;-63
2021/08/05 00:28:20;;;;;;;3.15;2.95;;;;;;;18.51;58.44;100765.31;683188;28;19347;-62
2021/08/05 00:28:42;;;;;;;3.08;2.88;;;;;;;18.52;58.46;100774.34;685142;28;1045;-62
2021/08/05 00:29:03;;;;;;;3.22;3.03;;;;;;;18.52;58.47;100768.88;687212;28;22572;-63
2021/08/05 00:29:25;;;;;;;3.45;3.25;;;;;;;18.51;58.45;100773.53;687127;28;17148;-62
2021/08/05 00:29:47;;;;;;;3.30;3.00;;;;;;;18.50;58.54;100769.09;686657;28;22407;-63
2021/08/05 00:30:10;;;;;;;3.53;3.10;;;;;;;18.50;58.49;100768.28;685090;28;15053;-63
2021/08/05 00:30:31;;;;;;;3.60;3.30;;;;;;;18.50;58.63;100771.84;684137;28;39151;-63
2021/08/05 00:30:53;;;;;;;3.50;3.20;;;;;;;18.48;58.46;100765.78;684791;28;3554;-62
2021/08/05 00:31:14;;;;;;;3.65;3.10;;;;;;;18.49;58.58;100764.69;682855;28;46295;-62
2021/08/05 00:31:36;;;;;;;3.58;3.35;;;;;;;18.50;58.61;100771.84;684560;28;18215;-63
2021/08/05 00:31:57;;;;;;;3.63;3.33;;;;;;;18.48;58.57;100773.97;683944;28;44402;-63
2021/08/05 00:32:18;;;;;;;3.50;3.20;;;;;;;18.47;58.58;100766.00;684767;28;21683;-63
2021/08/05 00:32:40;;;;;;;3.33;3.03;;;;;;;18.48;58.56;100767.66;684970;28;1577;-62
2021/08/05 00:33:03;;;;;;;3.42;3.00;;;;;;;18.47;58.47;100769.56;681532;28;1388;-62
2021/08/05 00:33:25;;;;;;;3.47;3.17;;;;;;;18.47;58.56;100766.81;680188;28;46376;-63
2021/08/05 00:33:46;;;;;;;3.72;3.42;;;;;;;18.47;58.64;100766.81;677203;29;35944;-62
2021/08/05 00:34:07;;;;;;;4.18;3.20;;;;;;;18.45;58.72;100763.50;677993;29;22469;-63
2021/08/05 00:34:30;;;;;;;6.75;3.20;;;;;;;18.46;58.49;100769.78;676154;29;22405;-63
2021/08/05 00:34:53;;;;;;;3.70;3.03;;;;;;;18.45;58.42;100765.38;680401;29;1328;-63
2021/08/05 00:35:15;;;;;;;3.63;3.33;;;;;;;18.46;58.54;100769.78;681862;28;4035;-62
2021/08/05 00:35:37;;;;;;;3.42;3.17;;;;;;;18.45;58.54;100765.38;681866;28;40365;-63
2021/08/05 00:36:03;;;;;;;3.65;3.30;;;;;;;18.43;58.52;100765.63;682757;28;60192;-63
2021/08/05 00:36:24;;;;;;;3.40;3.20;;;;;;;18.43;58.62;100767.50;681871;28;68372;-63
2021/08/05 00:36:47;;;;;;;3.40;3.10;;;;;;;18.42;58.55;100763.13;680866;29;22322;-63
2021/08/05 00:37:08;;;;;;;3.60;3.30;;;;;;;18.41;58.57;100758.72;679782;29;46271;-62
2021/08/05 00:37:30;;;;;;;3.30;3.08;;;;;;;18.41;58.56;100762.28;678677;29;46264;-63
2021/08/05 00:37:51;;;;;;;3.78;3.30;;;;;;;18.40;58.62;100763.34;677343;29;23467;-62
2021/08/05 00:38:12;;;;;;;3.30;3.00;;;;;;;18.40;58.62;100760.63;678149;29;21534;-63
2021/08/05 00:38:34;;;;;;;3.40;3.20;;;;;;;18.40;58.48;100759.75;677923;29;21520;-63
2021/08/05 00:38:55;;;;;;;3.50;3.20;;;;;;;18.39;58.42;100760.84;676747;29;1236;-62
2021/08/05 00:39:17;;;;;;;4.45;3.15;;;;;;;18.39;58.65;100766.31;679887;29;1759;-63
2021/08/05 00:39:41;;;;;;;4.32;3.10;;;;;;;18.39;58.70;100758.13;682104;29;1257;-62
2021/08/05 00:40:04;;;;;;;3.63;3.15;;;;;;;18.39;58.58;100760.84;683168;28;925;-63
2021/08/05 00:40:26;;;;;;;3.10;2.90;;;;;;;18.39;58.60;100763.59;684915;28;901;-63
2021/08/05 00:40:47;;;;;;;3.80;3.40;;;;;;;18.38;58.53;100768.19;681715;28;15455;-62
2021/08/05 00:41:09;;;;;;;4.57;3.47;;;;;;;18.37;58.48;100767.38;682464;28;12181;-62
2021/08/05 00:41:31;;;;;;;3.63;3.10;;;;;;;18.37;58.41;100761.91;681549;28;45381;-62
2021/08/05 00:41:52;;;;;;;3.72;3.30;;;;;;;18.37;58.41;100766.53;681253;28;69786;-63
2021/08/05 00:42:13;;;;;;;4.55;3.25;;;;;;;18.37;58.60;100764.63;680257;29;21358;-62
2021/08/05 00:42:34;;;;;;;3.83;3.50;;;;;;;18.35;58.45;100766.78;682474;28;15874;-62
2021/08/05 00:42:55;;;;;;;4.03;3.45;;;;;;;18.36;58.51;100762.13;684034;28;23360;-63
2021/08/05 00:43:17;;;;;;;3.60;3.22;;;;;;;18.36;58.44;100771.16;683825;28;21534;-62
2021/08/05 00:43:39;;;;;;;3.40;3.15;;;;;;;18.35;58.51;100757.72;680807;29;46397;-62
2021/08/05 00:44:01;;;;;;;4.03;3.10;;;;;;;18.36;58.55;100767.59;680970;29;20123;-62
2021/08/05 00:44:23;;;;;;;3.13;2.92;;;;;;;18.35;58.61;100764.03;677938;29;33234;-63
2021/08/05 00:44:44;;;;;;;3.85;3.30;;;;;;;18.35;58.50;100764.03;678444;29;11346;-63
2021/08/05 00:45:07;;;;;;;3.95;3.22;;;;;;;18.37;58.61;100766.53;678719;28;24245;-61
2021/08/05 00:45:33;;;;;;;3.45;3.15;;;;;;;18.37;58.42;100767.38;677918;29;61624;-63
2021/08/05 00:45:55;;;;;;;3.88;3.38;;;;;;;18.37;58.38;100761.91;679784;29;1014;-63
2021/08/05 00:46:16;;;;;;;3.65;3.20;;;;;;;18.38;58.60;100762.72;680467;28;21347;-63
2021/08/05 00:46:39;;;;;;;3.45;3.15;;;;;;;18.38;58.33;100768.19;683570;28;1034;-62
2021/08/05 00:47:00;;;;;;;3.60;3.33;;;;;;;18.37;58.53;100767.38;683280;28;45279;-62
2021/08/05 00:47:26;;;;;;;3.67;3.38;;;;;;;18.37;58.56;100761.91;681964;28;35373;-63
2021/08/05 00:47:47;;;;;;;3.70;3.40;;;;;;;18.38;58.57;100765.47;680631;28;113182;-62
2021/08/05 00:48:08;;;;;;;3.92;3.28;;;;;;;18.37;58.40;100769.28;684501;28;14027;-62
2021/08/05 00:48:29;;;;;;;4.32;3.30;;;;;;;18.36;58.43;100765.69;683628;28;23441;-62
2021/08/05 00:48:51;;;;;;;4.85;3.17;;;;;;;18.36;58.44;100764.88;682623;28;22480;-62
2021/08/05 00:49:13;;;;;;;5.65;3.20;;;;;;;18.36;58.29;100757.47;682732;28;46317;-63
2021/08/05 00:49:35;;;;;;;3.53;3.22;;;;;;;18.34;58.17;100764.25;682755;28;15194;-62
2021/08/05 00:49:57;;;;;;;3.50;3.15;;;;;;;18.35;58.37;100757.72;682737;28;42729;-62
2021/08/05 00:50:19;;;;;;;3.40;3.03;;;;;;;18.34;58.43;100767.00;680804;29;46089;-62
2021/08/05 00:50:40;;;;;;;3.60;3.30;;;;;;;18.33;58.40;100760.69;680463;28;44497;-63
2021/08/05 00:51:01;;;;;;;3.60;3.33;;;;;;;18.33;58.52;100762.59;681066;28;22266;-62
2021/08/05 00:51:22;;;;;;;3.70;3.40;;;;;;;18.31;58.38;100760.06;681028;29;22406;-63
2021/08/05 00:51:44;;;;;;;3.65;3.33;;;;;;;18.30;58.48;100758.41;681932;28;19261;-63
2021/08/05 00:52:06;;;;;;;4.07;3.30;;;;;;;18.27;58.44;100758.03;680762;29;44439;-63
2021/08/05 00:52:28;;;;;;;3.55;3.25;;;;;;;18.29;58.52;100754.00;680973;28;46549;-63
2021/08/05 00:52:49;;;;;;;3.50;3.20;;;;;;;18.29;58.42;100755.88;682535;28;47018;-62
2021/08/05 00:53:10;;;;;;;3.50;3.15;;;;;;;18.28;58.57;100759.72;684930;28;22395;-62
2021/08/05 00:53:32;;;;;;;3.80;3.35;;;;;;;18.28;58.43;100763.25;684679;28;17867;-63
2021/08/05 00:53:53;;;;;;;4.63;3.35;;;;;;;18.28;58.42;100762.44;683417;28;46528;-63
2021/08/05 00:54:15;;;;;;;6.00;3.20;;;;;;;18.29;58.51;100759.47;684682;28;19219;-62
2021/08/05 00:54:36;;;;;;;4.18;3.40;;;;;;;18.28;58.40;100755.06;684346;28;1659;-63
2021/08/05 00:54:57;;;;;;;3.63;3.30;;;;;;;18.27;58.58;100764.31;680826;28;22161;-62
2021/08/05 00:55:20;;;;;;;3.35;3.05;;;;;;;18.28;58.40;100763.25;683232;28;4323;-62
2021/08/05 00:55:41;;;;;;;3.72;3.15;;;;;;;18.26;58.28;100764.53;682658;28;47369;-62
2021/08/05 00:56:03;;;;;;;4.10;3.65;;;;;;;18.26;58.52;100759.94;683369;28;20767;-62
2021/08/05 00:56:25;;;;;;;3.53;3.25;;;;;;;18.27;58.43;100764.31;686437;28;1059;-63
2021/08/05 00:56:47;;;;;;;3.78;3.47;;;;;;;18.27;58.44;100755.28;683323;28;45412;-63
2021/08/05 00:57:11;;;;;;;4.20;3.85;;;;;;;18.28;58.35;100759.72;680964;29;38611;-63
2021/08/05 00:57:33;;;;;;;3.50;3.30;;;;;;;18.28;58.47;100760.53;679889;29;21534;-62
2021/08/05 00:57:55;;;;;;;3.60;3.30;;;;;;;18.28;58.49;100765.19;682245;29;1895;-62
2021/08/05 00:58:16;;;;;;;4.00;3.60;;;;;;;18.25;58.51;100755.53;681086;29;40886;-63
2021/08/05 00:58:38;;;;;;;3.58;3.25;;;;;;;18.29;58.47;100758.63;681582;29;955;-62
2021/08/05 00:59:00;;;;;;;3.20;3.00;;;;;;;18.29;58.43;100755.88;679572;29;31047;-62
2021/08/05 00:59:22;;;;;;;3.22;3.03;;;;;;;18.29;58.33;100753.16;680260;29;1828;-62
2021/08/05 00:59:44;;;;;;;3.75;3.28;;;;;;;18.30;58.41;100761.13;678984;29;22423;-63
2021/08/05 01:00:06;;;;;;;3.90;3.33;;;;;;;18.29;58.49;100756.75;679154;29;23279;-62
2021/08/05 01:00:35;;;;;;;4.10;3.63;;;;;;;18.29;58.43;100759.47;675905;29;61606;-61
2021/08/05 01:00:59;;;;;;;4.20;3.60;;;;;;;18.28;58.49;100755.06;680598;28;1295;-63
2021/08/05 01:01:24;;;;;;;3.75;3.45;;;;;;;18.29;58.26;100758.63;681051;28;47515;-62
2021/08/05 01:01:47;;;;;;;3.80;3.42;;;;;;;18.28;58.37;100757.78;684240;28;56712;-62
2021/08/05 01:02:11;;;;;;;4.60;3.30;;;;;;;18.27;58.45;100756.13;681682;28;88010;-62
2021/08/05 01:02:37;;;;;;;5.40;3.33;;;;;;;18.27;58.27;100756.13;680221;28;90075;-62
2021/08/05 01:03:03;;;;;;;4.25;3.25;;;;;;;18.27;58.32;100755.28;679709;28;115401;-62
2021/08/05 01:03:27;;;;;;;4.10;3.50;;;;;;;18.26;58.30;100759.94;678986;28;137951;-63
2021/08/05 01:03:51;;;;;;;3.22;3.03;;;;;;;18.27;58.26;100756.13;679502;28;114473;-63
2021/08/05 01:04:12;;;;;;;3.53;3.22;;;;;;;18.27;58.37;100758.84;683983;28;69470;-62
2021/08/05 01:04:35;;;;;;;3.70;3.40;;;;;;;18.28;58.42;100762.44;686813;28;44370;-63
2021/08/05 01:04:58;;;;;;;4.32;3.50;;;;;;;18.27;58.37;100752.56;686359;28;44539;-62
2021/08/05 01:05:19;;;;;;;3.80;3.50;;;;;;;18.26;58.38;100754.47;682031;28;69418;-62
2021/08/05 01:05:43;;;;;;;3.60;3.30;;;;;;;18.26;58.38;100759.06;681682;28;22416;-62
2021/08/05 01:06:10;;;;;;;3.47;3.22;;;;;;;18.26;58.22;100751.72;679240;29;91205;-62
2021/08/05 01:06:38;;;;;;;4.07;3.17;;;;;;;18.24;58.36;100748.38;677890;28;138742;-62
2021/08/05 01:07:05;;;;;;;5.13;3.33;;;;;;;18.25;58.38;100755.53;682862;28;60724;-62
2021/08/05 01:07:37;;;;;;;3.85;3.53;;;;;;;18.26;58.39;100756.34;679908;28;161637;-63
2021/08/05 01:08:03;;;;;;;3.75;3.38;;;;;;;18.25;58.24;100760.97;685674;28;61522;-62
2021/08/05 01:08:28;;;;;;;5.22;3.45;;;;;;;18.24;58.31;100756.56;681356;28;161033;-63
2021/08/05 01:08:55;;;;;;;5.28;3.50;;;;;;;18.25;58.46;100754.69;685979;28;14956;-62
2021/08/05 01:09:22;;;;;;;4.63;3.13;;;;;;;18.24;58.39;100750.28;683423;28;61823;-63
2021/08/05 01:10:00;;;;;;;3.42;3.22;;;;;;;18.24;58.47;100745.63;681891;28;61371;-62
2021/08/05 01:10:33;;;;;;;3.70;3.30;;;;;;;18.23;58.50;100752.19;682858;28;62112;-62
2021/08/05 01:11:04;;;;;;;3.30;3.10;;;;;;;18.26;58.52;100748.13;683123;28;61515;-62
2021/08/05 01:11:29;;;;;;;3.50;3.10;;;;;;;18.25;58.45;100744.59;680269;28;137833;-61
2021/08/05 01:11:55;;;;;;;3.97;3.17;;;;;;;18.24;58.39;100744.81;684765;28;90775;-62
2021/08/05 01:12:20;;;;;;;3.10;2.90;;;;;;;18.24;58.39;100748.38;682979;28;138170;-62
2021/08/05 01:12:46;;;;;;;3.42;3.13;;;;;;;18.23;58.38;100743.13;684763;28;93117;-63
2021/08/05 01:13:11;;;;;;;3.80;3.50;;;;;;;18.21;58.37;100748.81;682897;28;138942;-63
2021/08/05 01:13:36;;;;;;;3.40;3.10;;;;;;;18.22;58.32;100750.50;682888;28;135720;-61
2021/08/05 01:14:02;;;;;;;3.55;3.25;;;;;;;18.21;58.21;100745.25;683516;28;115180;-62
2021/08/05 01:14:24;;;;;;;5.15;3.50;;;;;;;18.21;58.38;100737.88;683875;28;111959;-62
2021/08/05 01:14:49;;;;;;;4.18;3.40;;;;;;;18.21;58.18;100737.88;683503;28;36976;-62
2021/08/05 01:15:14;;;;;;;4.95;3.47;;;;;;;18.21;58.36;100740.63;681570;28;110447;-62
2021/08/05 01:15:36;;;;;;;3.42;3.13;;;;;;;18.21;58.48;100734.34;685121;28;61006;-62
2021/08/05 01:15:59;;;;;;;3.00;2.80;;;;;;;18.21;58.10;100743.34;687690;28;1032;-62
2021/08/05 01:16:23;;;;;;;3.50;3.22;;;;;;;18.20;58.03;100736.25;682535;28;69455;-63
2021/08/05 01:16:46;;;;;;;4.20;3.60;;;;;;;18.20;58.24;100741.72;683928;28;90938;-62
2021/08/05 01:17:09;;;;;;;3.80;3.50;;;;;;;18.20;58.37;100738.97;686167;28;46968;-62
2021/08/05 01:17:31;;;;;;;4.82;3.50;;;;;;;18.19;58.38;100743.59;685833;28;50740;-63
2021/08/05 01:17:55;;;;;;;3.50;3.30;;;;;;;18.18;58.34;100739.19;685581;28;46303;-62
2021/08/05 01:18:23;;;;;;;3.53;3.22;;;;;;;18.19;58.49;100742.75;684321;28;93129;-63
2021/08/05 01:18:45;;;;;;;3.30;3.10;;;;;;;18.18;58.40;100739.19;683557;28;129433;-62
2021/08/05 01:19:11;;;;;;;3.50;3.28;;;;;;;18.17;58.20;100740.25;685902;28;38813;-63
2021/08/05 01:19:41;;;;;;;3.72;3.42;;;;;;;18.18;58.32;100736.47;685430;28;60324;-63
2021/08/05 01:20:04;;;;;;;4.65;3.20;;;;;;;18.19;58.38;100737.28;680506;28;121926;-62
2021/08/05 01:20:27;;;;;;;3.97;3.10;;;;;;;18.18;58.50;100732.88;681826;29;14869;-62
2021/08/05 01:21:01;;;;;;;3.65;3.35;;;;;;;18.17;58.38;100739.44;681503;28;61388;-63
2021/08/05 01:21:31;;;;;;;3.33;3.03;;;;;;;18.18;58.34;100732.88;678091;28;138101;-62
2021/08/05 01:21:57;;;;;;;3.53;3.22;;;;;;;18.18;58.52;100727.41;682799;28;61321;-62
2021/08/05 01:22:22;;;;;;;3.30;3.10;;;;;;;18.18;58.37;100731.00;683592;28;139069;-63
2021/08/05 01:22:48;;;;;;;3.90;3.20;;;;;;;18.21;58.37;100731.59;685359;28;102624;-63
2021/08/05 01:23:13;;;;;;;4.07;3.15;;;;;;;18.21;58.37;100731.59;679315;28;130975;-62
2021/08/05 01:23:37;;;;;;;3.42;3.13;;;;;;;18.20;58.33;100733.50;682844;28;115237;-62
2021/08/05 01:24:01;;;;;;;3.53;3.28;;;;;;;18.21;58.28;100729.69;682884;28;111912;-62
2021/08/05 01:24:24;;;;;;;3.47;3.17;;;;;;;18.22;58.29;100736.84;683589;28;66706;-63
2021/08/05 01:24:53;;;;;;;4.15;3.00;;;;;;;18.22;58.38;100734.09;684163;28;66718;-62
2021/08/05 01:25:19;;;;;;;4.20;3.70;;;;;;;18.23;58.58;100730.31;683273;28;150110;-63
2021/08/05 01:25:46;;;;;;;3.75;3.45;;;;;;;18.23;58.30;100724.84;682645;28;137933;-61
2021/08/05 01:26:09;;;;;;;3.85;3.40;;;;;;;18.23;58.22;100730.31;682029;28;137859;-62
2021/08/05 01:26:55;;;;;;;4.53;3.30;;;;;;;18.22;58.11;100730.53;684001;28;92287;-62
2021/08/05 01:27:16;;;;;;;3.20;3.00;;;;;;;18.21;58.21;100726.13;680252;28;128669;-62
2021/08/05 01:27:38;;;;;;;3.83;3.38;;;;;;;18.21;57.98;100726.13;684464;28;11462;-62
2021/08/05 01:28:10;;;;;;;3.30;3.10;;;;;;;18.18;58.18;100730.16;677994;29;98474;-63
2021/08/05 01:28:38;;;;;;;3.50;3.28;;;;;;;18.19;58.29;100729.09;677561;29;60950;-61
2021/08/05 01:29:00;;;;;;;3.40;3.20;;;;;;;18.18;58.34;100733.72;675397;29;53952;-63
2021/08/05 01:29:24;;;;;;;3.38;2.85;;;;;;;18.17;58.20;100728.50;676328;29;15808;-62
2021/08/05 01:29:46;;;;;;;3.97;3.08;;;;;;;18.16;58.17;100724.91;673454;29;46392;-63
2021/08/05 01:30:10;;;;;;;3.30;3.10;;;;;;;18.16;58.27;100733.09;674573;29;1056;-62
2021/08/05 01:30:31;;;;;;;3.53;3.22;;;;;;;18.16;58.31;100729.53;674269;29;69431;-63
2021/08/05 01:30:54;;;;;;;3.47;3.20;;;;;;;18.16;58.42;100724.09;677915;29;14159;-62
2021/08/05 01:31:17;;;;;;;3.60;3.28;;;;;;;18.15;58.33;100733.31;678230;29;69515;-62
2021/08/05 01:31:39;;;;;;;4.30;3.03;;;;;;;18.14;58.20;100727.03;680869;28;82815;-63
2021/08/05 01:32:02;;;;;;;3.38;3.15;;;;;;;18.16;58.45;100722.16;684272;28;31069;-62
2021/08/05 01:32:24;;;;;;;3.33;3.03;;;;;;;18.16;58.27;100724.91;685566;28;53022;-62
2021/08/05 01:32:46;;;;;;;3.33;3.03;;;;;;;18.17;58.43;100726.59;686493;28;42424;-63
2021/08/05 01:33:08;;;;;;;3.33;3.03;;;;;;;18.18;58.32;100733.72;683990;28;38243;-61
2021/08/05 01:33:30;;;;;;;3.70;2.95;;;;;;;18.20;58.42;100728.03;681345;29;29514;-62
2021/08/05 01:33:52;;;;;;;3.58;3.20;;;;;;;18.22;58.13;100733.28;679245;29;12382;-62
2021/08/05 01:34:15;;;;;;;3.30;3.00;;;;;;;18.22;58.37;100725.91;677761;29;44409;-62
2021/08/05 01:34:38;;;;;;;3.22;2.92;;;;;;;18.22;58.11;100722.34;679743;29;930;-62
2021/08/05 01:35:00;;;;;;;3.25;2.90;;;;;;;18.23;58.24;100721.25;680475;29;950;-62
2021/08/05 01:35:25;;;;;;;3.35;3.05;;;;;;;18.21;58.00;100724.22;681762;28;115129;-62
2021/08/05 01:35:50;;;;;;;3.28;3.03;;;;;;;18.22;57.99;100727.81;686946;28;46559;-61
2021/08/05 01:36:12;;;;;;;3.45;3.15;;;;;;;18.21;57.88;100726.13;688781;28;38633;-62
2021/08/05 01:36:35;;;;;;;3.40;3.10;;;;;;;18.22;58.02;100727.81;687892;28;1262;-62
2021/08/05 01:36:56;;;;;;;3.20;2.90;;;;;;;18.18;58.00;100716.47;686130;28;47532;-62
2021/08/05 01:37:18;;;;;;;3.53;3.03;;;;;;;18.22;58.05;100722.34;685922;28;46400;-62
2021/08/05 01:37:41;;;;;;;3.40;3.10;;;;;;;18.21;57.88;100723.41;687628;28;887;-63
2021/08/05 01:38:05;;;;;;;3.10;2.90;;;;;;;18.19;58.00;100726.34;687016;28;14299;-63
2021/08/05 01:38:28;;;;;;;3.05;2.75;;;;;;;18.20;57.80;100728.03;687007;28;15890;-63
2021/08/05 01:38:50;;;;;;;2.90;2.70;;;;;;;18.19;58.00;100724.44;690012;28;1151;-62
2021/08/05 01:39:12;;;;;;;3.00;2.80;;;;;;;18.19;58.03;100727.19;687208;28;1959;-62
2021/08/05 01:39:34;;;;;;;3.17;2.90;;;;;;;18.19;57.91;100726.34;681730;29;7195;-62
2021/08/05 01:39:57;;;;;;;3.55;3.25;;;;;;;18.19;58.09;100726.34;682248;29;1993;-64
2021/08/05 01:40:19;;;;;;;3.20;3.00;;;;;;;18.18;58.19;100724.69;680939;29;33796;-63
2021/08/05 01:40:40;;;;;;;3.00;2.90;;;;;;;18.17;57.96;100725.75;681705;28;11103;-62
2021/08/05 01:41:03;;;;;;;3.35;2.83;;;;;;;18.15;57.98;100725.13;682708;28;18456;-63
2021/08/05 01:41:25;;;;;;;3.30;3.00;;;;;;;18.17;58.08;100723.03;685272;28;46705;-63
2021/08/05 01:41:49;;;;;;;3.10;2.90;;;;;;;18.18;58.24;100727.41;688100;28;43942;-63
2021/08/05 01:42:11;;;;;;;3.08;2.88;;;;;;;18.18;58.37;100721.94;685052;28;101696;-63
2021/08/05 01:42:33;;;;;;;3.13;2.90;;;;;;;18.17;58.17;100718.38;687181;28;45366;-63
2021/08/05 01:42:56;;;;;;;3.58;3.00;;;;;;;18.17;58.20;100723.84;689319;28;941;-63
2021/08/05 01:43:18;;;;;;;3.40;3.00;;;;;;;18.17;58.04;100725.75;686345;28;65485;-63
2021/08/05 01:43:41;;;;;;;3.88;3.05;;;;;;;18.17;58.15;100726.59;687481;28;44397;-63
2021/08/05 01:44:03;;;;;;;3.20;2.90;;;;;;;18.16;58.10;100724.09;684460;28;66203;-63
2021/08/05 01:44:25;;;;;;;3.10;2.90;;;;;;;18.15;58.13;100717.78;686139;28;46307;-63
2021/08/05 01:44:47;;;;;;;3.30;3.03;;;;;;;18.17;58.21;100723.03;683475;28;45167;-63
2021/08/05 01:45:10;;;;;;;3.25;2.95;;;;;;;18.17;58.09;100726.59;683598;28;46259;-63
2021/08/05 01:45:31;;;;;;;3.10;2.90;;;;;;;18.18;58.06;100731.00;679290;29;89080;-63
2021/08/05 01:45:53;;;;;;;3.00;2.80;;;;;;;18.17;58.01;100729.31;682447;28;17657;-63
2021/08/05 01:46:18;;;;;;;3.00;2.80;;;;;;;18.19;58.04;100726.34;681045;28;46690;-63
2021/08/05 01:46:39;;;;;;;3.10;2.90;;;;;;;18.19;58.12;100724.44;680812;28;86342;-62
2021/08/05 01:47:00;;;;;;;3.30;3.10;;;;;;;18.18;58.05;100725.53;681683;29;22158;-63
2021/08/05 01:47:23;;;;;;;3.47;3.25;;;;;;;18.18;57.89;100725.53;681106;29;21589;-63
2021/08/05 01:47:45;;;;;;;3.28;2.97;;;;;;;18.18;57.99;100731.00;679607;29;69042;-63